sensor_id;sensor_type;location;lat;lon;timestamp;pressure;altitude;pressure_sealevel;temperature;humidity
63907;BME280;50075;49.484;11.238;2024-01-06T00:01:16;96737.03;;;4.46;100.00
63907;BME280;50075;49.484;11.238;2024-01-06T00:03:42;96733.56;;;4.34;100.00
63907;BME280;50075;49.484;11.238;2024-01-06T00:06:07;96738.75;;;4.48;100.00
63907;BME280;50075;49.484;11.238;2024-01-06T00:08:32;96740.47;;;4.52;100.00
63907;BME280;50075;49.484;11.238;2024-01-06T00:10:57;96738.75;;;4.53;100.00
63907;BME280;50075;49.484;11.238;2024-01-06T00:13:23;96740.47;;;4.59;100.00
63907;BME280;50075;49.484;11.238;2024-01-06T00:15:48;96744.75;;;4.47;100.00
63907;BME280;50075;49.484;11.238;2024-01-06T00:18:13;96746.47;;;4.56;100.00
63907;BME280;50075;49.484;11.238;2024-01-06T00:20:39;96747.34;;;4.60;100.00
63907;BME280;50075;49.484;11.238;2024-01-06T00:23:04;96749.06;;;4.65;100.00
63907;BME280;50075;49.484;11.238;2024-01-06T00:25:30;96755.91;;;4.52;100.00
63907;BME280;50075;49.484;11.238;2024-01-06T00:27:55;96754.19;;;4.54;100.00
63907;BME280;50075;49.484;11.238;2024-01-06T00:30:20;96742.16;;;4.25;100.00
63907;BME280;50075;49.484;11.238;2024-01-06T00:32:46;96751.63;;;4.31;100.00
63907;BME280;50075;49.484;11.238;2024-01-06T00:35:11;96753.31;;;4.21;100.00
63907;BME280;50075;49.484;11.238;2024-01-06T00:37:36;96757.59;;;4.22;100.00
63907;BME280;50075;49.484;11.238;2024-01-06T00:40:02;96758.47;;;4.32;100.00
63907;BME280;50075;49.484;11.238;2024-01-06T00:42:27;96756.75;;;4.28;100.00
63907;BME280;50075;49.484;11.238;2024-01-06T00:44:53;96754.13;;;4.12;100.00
63907;BME280;50075;49.484;11.238;2024-01-06T00:47:18;96760.16;;;4.14;100.00
63907;BME280;50075;49.484;11.238;2024-01-06T00:49:43;96764.38;;;3.95;100.00
63907;BME280;50075;49.484;11.238;2024-01-06T00:52:09;96760.13;;;4.05;100.00
63907;BME280;50075;49.484;11.238;2024-01-06T00:54:34;96760.13;;;4.02;100.00
63907;BME280;50075;49.484;11.238;2024-01-06T00:56:59;96767.78;;;3.82;100.00
63907;BME280;50075;49.484;11.238;2024-01-06T00:59:24;96759.09;;;3.58;100.00
63907;BME280;50075;49.484;11.238;2024-01-06T01:01:50;96765.94;;;3.60;100.00
63907;BME280;50075;49.484;11.238;2024-01-06T01:04:15;96764.22;;;3.58;100.00
63907;BME280;50075;49.484;11.238;2024-01-06T01:06:41;96766.06;;;3.84;100.00
63907;BME280;50075;49.484;11.238;2024-01-06T01:09:06;96772.09;;;3.92;100.00
63907;BME280;50075;49.484;11.238;2024-01-06T01:11:32;96769.56;;;4.04;100.00
63907;BME280;50075;49.484;11.238;2024-01-06T01:13:57;96773.81;;;3.95;100.00
63907;BME280;50075;49.484;11.238;2024-01-06T01:16:22;96777.28;;;4.12;100.00
63907;BME280;50075;49.484;11.238;2024-01-06T01:18:48;96779.88;;;4.14;100.00
63907;BME280;50075;49.484;11.238;2024-01-06T01:21:14;96780.69;;;3.99;100.00
63907;BME280;50075;49.484;11.238;2024-01-06T01:23:40;96789.25;;;3.96;100.00
63907;BME280;50075;49.484;11.238;2024-01-06T01:26:05;96791.00;;;4.02;100.00
63907;BME280;50075;49.484;11.238;2024-01-06T01:28:30;96783.22;;;3.89;100.00
63907;BME280;50075;49.484;11.238;2024-01-06T01:30:56;96787.56;;;4.03;100.00
63907;BME280;50075;49.484;11.238;2024-01-06T01:33:21;96789.25;;;3.96;100.00
63907;BME280;50075;49.484;11.238;2024-01-06T01:35:46;96790.16;;;4.06;100.00
63907;BME280;50075;49.484;11.238;2024-01-06T01:38:12;96785.81;;;3.93;100.00
63907;BME280;50075;49.484;11.238;2024-01-06T01:40:37;96790.06;;;3.87;100.00
63907;BME280;50075;49.484;11.238;2024-01-06T01:43:02;96792.72;;;4.04;100.00
63907;BME280;50075;49.484;11.238;2024-01-06T01:45:28;96795.22;;;3.84;100.00
63907;BME280;50075;49.484;11.238;2024-01-06T01:47:53;96794.34;;;3.79;100.00
63907;BME280;50075;49.484;11.238;2024-01-06T01:50:19;96790.03;;;3.80;100.00
63907;BME280;50075;49.484;11.238;2024-01-06T01:52:45;96792.63;;;3.81;100.00
63907;BME280;50075;49.484;11.238;2024-01-06T01:55:11;96791.63;;;3.53;100.00
63907;BME280;50075;49.484;11.238;2024-01-06T01:57:37;96799.19;;;3.28;100.00
63907;BME280;50075;49.484;11.238;2024-01-06T02:00:03;96796.53;;;3.13;100.00
63907;BME280;50075;49.484;11.238;2024-01-06T02:02:28;96795.63;;;3.04;100.00
63907;BME280;50075;49.484;11.238;2024-01-06T02:04:55;96793.94;;;3.07;100.00
63907;BME280;50075;49.484;11.238;2024-01-06T02:07:21;96790.56;;;3.16;100.00
63907;BME280;50075;49.484;11.238;2024-01-06T02:09:46;96791.50;;;3.28;100.00
63907;BME280;50075;49.484;11.238;2024-01-06T02:12:11;96788.94;;;3.29;100.00
63907;BME280;50075;49.484;11.238;2024-01-06T02:14:37;96789.03;;;3.45;100.00
63907;BME280;50075;49.484;11.238;2024-01-06T02:17:02;96794.03;;;3.20;100.00
63907;BME280;50075;49.484;11.238;2024-01-06T02:19:28;96791.63;;;3.49;100.00
63907;BME280;50075;49.484;11.238;2024-01-06T02:21:53;96792.50;;;3.58;100.00
63907;BME280;50075;49.484;11.238;2024-01-06T02:24:19;96790.78;;;3.49;100.00
63907;BME280;50075;49.484;11.238;2024-01-06T02:26:45;96785.56;;;3.39;100.00
63907;BME280;50075;49.484;11.238;2024-01-06T02:29:10;96789.88;;;3.47;100.00
63907;BME280;50075;49.484;11.238;2024-01-06T02:31:36;96787.41;;;3.69;100.00
63907;BME280;50075;49.484;11.238;2024-01-06T02:34:01;96792.56;;;3.62;100.00
63907;BME280;50075;49.484;11.238;2024-01-06T02:36:26;96786.56;;;3.71;100.00
63907;BME280;50075;49.484;11.238;2024-01-06T02:38:52;96791.66;;;3.60;100.00
63907;BME280;50075;49.484;11.238;2024-01-06T02:41:17;96789.13;;;3.63;100.00
63907;BME280;50075;49.484;11.238;2024-01-06T02:43:42;96791.75;;;3.74;100.00
63907;BME280;50075;49.484;11.238;2024-01-06T02:46:08;96784.84;;;3.69;100.00
63907;BME280;50075;49.484;11.238;2024-01-06T02:48:34;96791.72;;;3.68;100.00
63907;BME280;50075;49.484;11.238;2024-01-06T02:50:59;96792.56;;;3.62;100.00
63907;BME280;50075;49.484;11.238;2024-01-06T02:53:24;96792.63;;;3.75;100.00
63907;BME280;50075;49.484;11.238;2024-01-06T02:55:49;96795.97;;;3.64;100.00
63907;BME280;50075;49.484;11.238;2024-01-06T02:58:15;96799.38;;;3.57;100.00
63907;BME280;50075;49.484;11.238;2024-01-06T03:00:40;96798.50;;;3.54;100.00
63907;BME280;50075;49.484;11.238;2024-01-06T03:03:05;96805.34;;;3.51;100.00
63907;BME280;50075;49.484;11.238;2024-01-06T03:05:31;96811.31;;;3.46;100.00
63907;BME280;50075;49.484;11.238;2024-01-06T03:07:56;96807.13;;;3.63;100.00
63907;BME280;50075;49.484;11.238;2024-01-06T03:10:22;96805.34;;;3.55;100.00
63907;BME280;50075;49.484;11.238;2024-01-06T03:12:47;96808.88;;;3.74;100.00
63907;BME280;50075;49.484;11.238;2024-01-06T03:15:13;96803.66;;;3.61;100.00
63907;BME280;50075;49.484;11.238;2024-01-06T03:17:38;96811.31;;;3.50;100.00
63907;BME280;50075;49.484;11.238;2024-01-06T03:20:04;96808.69;;;3.39;100.00
63907;BME280;50075;49.484;11.238;2024-01-06T03:22:29;96809.50;;;3.29;100.00
63907;BME280;50075;49.484;11.238;2024-01-06T03:24:55;96803.63;;;3.52;100.00
63907;BME280;50075;49.484;11.238;2024-01-06T03:27:20;96809.44;;;3.24;100.00
63907;BME280;50075;49.484;11.238;2024-01-06T03:29:45;96807.81;;;3.31;100.00
63907;BME280;50075;49.484;11.238;2024-01-06T03:32:11;96809.72;;;3.70;100.00
63907;BME280;50075;49.484;11.238;2024-01-06T03:34:37;96807.13;;;3.65;100.00
63907;BME280;50075;49.484;11.238;2024-01-06T03:37:02;96812.31;;;3.73;100.00
63907;BME280;50075;49.484;11.238;2024-01-06T03:39:27;96808.81;;;3.60;100.00
63907;BME280;50075;49.484;11.238;2024-01-06T03:41:53;96820.84;;;3.64;100.00
63907;BME280;50075;49.484;11.238;2024-01-06T03:44:18;96828.56;;;3.64;100.00
63907;BME280;50075;49.484;11.238;2024-01-06T03:46:44;96820.72;;;3.44;100.00
63907;BME280;50075;49.484;11.238;2024-01-06T03:49:09;96819.88;;;3.48;100.00
63907;BME280;50075;49.484;11.238;2024-01-06T03:51:35;96823.25;;;3.39;100.00
63907;BME280;50075;49.484;11.238;2024-01-06T03:54:00;96820.00;;;3.68;100.00
63907;BME280;50075;49.484;11.238;2024-01-06T03:56:25;96826.91;;;3.77;100.00
63907;BME280;50075;49.484;11.238;2024-01-06T03:58:50;96829.44;;;3.69;100.00
63907;BME280;50075;49.484;11.238;2024-01-06T04:01:16;96830.16;;;3.43;100.00
63907;BME280;50075;49.484;11.238;2024-01-06T04:03:41;96826.66;;;3.35;100.00
63907;BME280;50075;49.484;11.238;2024-01-06T04:06:06;96831.06;;;3.53;100.00
63907;BME280;50075;49.484;11.238;2024-01-06T04:08:32;96832.03;;;3.74;100.00
63907;BME280;50075;49.484;11.238;2024-01-06T04:10:57;96836.28;;;3.64;100.00
63907;BME280;50075;49.484;11.238;2024-01-06T04:13:22;96841.34;;;3.51;100.00
63907;BME280;50075;49.484;11.238;2024-01-06T04:15:50;96847.31;;;3.47;100.00
63907;BME280;50075;49.484;11.238;2024-01-06T04:18:15;96843.06;;;3.59;100.00
63907;BME280;50075;49.484;11.238;2024-01-06T04:20:41;96850.84;;;3.65;100.00
63907;BME280;50075;49.484;11.238;2024-01-06T04:23:06;96846.63;;;3.81;100.00
63907;BME280;50075;49.484;11.238;2024-01-06T04:25:31;96852.56;;;3.66;100.00
63907;BME280;50075;49.484;11.238;2024-01-06T04:27:57;96849.81;;;3.39;100.00
63907;BME280;50075;49.484;11.238;2024-01-06T04:30:22;96855.91;;;3.51;100.00
63907;BME280;50075;49.484;11.238;2024-01-06T04:32:47;96850.03;;;3.72;100.00
63907;BME280;50075;49.484;11.238;2024-01-06T04:35:14;96849.03;;;3.50;100.00
63907;BME280;50075;49.484;11.238;2024-01-06T04:37:39;96845.75;;;3.76;100.00
63907;BME280;50075;49.484;11.238;2024-01-06T04:40:05;96844.81;;;3.63;100.00
63907;BME280;50075;49.484;11.238;2024-01-06T04:42:31;96848.13;;;3.40;100.00
63907;BME280;50075;49.484;11.238;2024-01-06T04:44:56;96848.09;;;3.37;100.00
63907;BME280;50075;49.484;11.238;2024-01-06T04:47:22;96840.38;;;3.32;100.00
63907;BME280;50075;49.484;11.238;2024-01-06T04:49:47;96851.59;;;3.48;100.00
63907;BME280;50075;49.484;11.238;2024-01-06T04:52:12;96846.56;;;3.67;100.00
63907;BME280;50075;49.484;11.238;2024-01-06T04:54:38;96842.25;;;3.60;100.00
63907;BME280;50075;49.484;11.238;2024-01-06T04:57:03;96852.41;;;3.41;100.00
63907;BME280;50075;49.484;11.238;2024-01-06T04:59:30;96854.13;;;3.45;100.00
63907;BME280;50075;49.484;11.238;2024-01-06T05:01:56;96851.50;;;3.31;100.00
63907;BME280;50075;49.484;11.238;2024-01-06T05:04:22;96847.25;;;3.36;100.00
63907;BME280;50075;49.484;11.238;2024-01-06T05:06:47;96846.28;;;3.23;100.00
63907;BME280;50075;49.484;11.238;2024-01-06T05:09:14;96850.72;;;3.45;100.00
63907;BME280;50075;49.484;11.238;2024-01-06T05:11:40;96851.63;;;3.53;100.00
63907;BME280;50075;49.484;11.238;2024-01-06T05:14:05;96853.28;;;3.43;100.00
63907;BME280;50075;49.484;11.238;2024-01-06T05:16:31;96858.28;;;3.26;100.00
63907;BME280;50075;49.484;11.238;2024-01-06T05:18:56;96859.94;;;3.19;100.00
63907;BME280;50075;49.484;11.238;2024-01-06T05:21:21;96854.00;;;3.23;100.00
63907;BME280;50075;49.484;11.238;2024-01-06T05:23:47;96856.50;;;3.16;100.00
63907;BME280;50075;49.484;11.238;2024-01-06T05:26:12;96858.09;;;2.98;100.00
63907;BME280;50075;49.484;11.238;2024-01-06T05:28:39;96857.19;;;2.93;100.00
63907;BME280;50075;49.484;11.238;2024-01-06T05:31:04;96852.13;;;3.04;100.00
63907;BME280;50075;49.484;11.238;2024-01-06T05:33:29;96853.72;;;2.91;100.00
63907;BME280;50075;49.484;11.238;2024-01-06T05:35:55;96853.88;;;3.06;100.00
63907;BME280;50075;49.484;11.238;2024-01-06T05:38:20;96858.22;;;3.17;100.00
63907;BME280;50075;49.484;11.238;2024-01-06T05:40:45;96869.44;;;3.25;100.00
63907;BME280;50075;49.484;11.238;2024-01-06T05:43:11;96870.16;;;3.10;100.00
63907;BME280;50075;49.484;11.238;2024-01-06T05:45:36;96863.94;;;2.81;100.00
63907;BME280;50075;49.484;11.238;2024-01-06T05:48:03;96875.28;;;3.05;100.00
63907;BME280;50075;49.484;11.238;2024-01-06T05:50:29;96874.28;;;2.92;100.00
63907;BME280;50075;49.484;11.238;2024-01-06T05:52:54;96882.91;;;2.99;100.00
63907;BME280;50075;49.484;11.238;2024-01-06T05:55:20;96886.34;;;2.99;100.00
63907;BME280;50075;49.484;11.238;2024-01-06T05:57:46;96898.38;;;3.04;100.00
63907;BME280;50075;49.484;11.238;2024-01-06T06:00:11;96898.28;;;2.94;100.00
63907;BME280;50075;49.484;11.238;2024-01-06T06:02:38;96901.78;;;2.99;100.00
63907;BME280;50075;49.484;11.238;2024-01-06T06:05:04;96909.41;;;2.93;100.00
63907;BME280;50075;49.484;11.238;2024-01-06T06:07:30;96911.94;;;2.89;100.00
63907;BME280;50075;49.484;11.238;2024-01-06T06:09:55;96915.41;;;2.94;100.00
63907;BME280;50075;49.484;11.238;2024-01-06T06:12:20;96916.94;;;2.76;100.00
63907;BME280;50075;49.484;11.238;2024-01-06T06:14:46;96924.47;;;2.60;100.00
63907;BME280;50075;49.484;11.238;2024-01-06T06:17:11;96914.31;;;2.70;100.00
63907;BME280;50075;49.484;11.238;2024-01-06T06:19:36;96919.47;;;2.71;100.00
63907;BME280;50075;49.484;11.238;2024-01-06T06:22:02;96925.44;;;2.70;100.00
63907;BME280;50075;49.484;11.238;2024-01-06T06:24:27;96927.19;;;2.75;100.00
63907;BME280;50075;49.484;11.238;2024-01-06T06:26:52;96933.38;;;2.92;100.00
63907;BME280;50075;49.484;11.238;2024-01-06T06:29:18;96935.81;;;2.80;100.00
63907;BME280;50075;49.484;11.238;2024-01-06T06:31:43;96942.59;;;2.75;100.00
63907;BME280;50075;49.484;11.238;2024-01-06T06:34:10;96938.44;;;2.88;100.00
63907;BME280;50075;49.484;11.238;2024-01-06T06:36:36;96938.59;;;3.02;100.00
63907;BME280;50075;49.484;11.238;2024-01-06T06:39:01;96955.25;;;2.59;100.00
63907;BME280;50075;49.484;11.238;2024-01-06T06:41:27;96963.66;;;2.45;100.00
63907;BME280;50075;49.484;11.238;2024-01-06T06:43:52;96969.72;;;2.49;100.00
63907;BME280;50075;49.484;11.238;2024-01-06T06:46:17;96969.75;;;2.54;100.00
63907;BME280;50075;49.484;11.238;2024-01-06T06:48:43;96971.44;;;2.53;100.00
63907;BME280;50075;49.484;11.238;2024-01-06T06:51:08;96975.63;;;2.43;100.00
63907;BME280;50075;49.484;11.238;2024-01-06T06:53:33;96968.72;;;2.38;100.00
63907;BME280;50075;49.484;11.238;2024-01-06T06:55:59;96984.84;;;2.29;100.00
63907;BME280;50075;49.484;11.238;2024-01-06T06:58:24;96978.72;;;2.17;100.00
63907;BME280;50075;49.484;11.238;2024-01-06T07:00:49;96986.38;;;2.16;100.00
63907;BME280;50075;49.484;11.238;2024-01-06T07:03:14;96989.03;;;2.22;100.00
63907;BME280;50075;49.484;11.238;2024-01-06T07:05:41;96991.41;;;2.08;100.00
63907;BME280;50075;49.484;11.238;2024-01-06T07:08:06;96990.44;;;2.00;100.00
63907;BME280;50075;49.484;11.238;2024-01-06T07:10:31;96995.72;;;2.11;100.00
63907;BME280;50075;49.484;11.238;2024-01-06T07:12:57;96994.84;;;2.10;100.00
63907;BME280;50075;49.484;11.238;2024-01-06T07:15:22;96990.50;;;2.06;100.00
63907;BME280;50075;49.484;11.238;2024-01-06T07:17:47;96994.94;;;2.18;100.00
63907;BME280;50075;49.484;11.238;2024-01-06T07:20:13;96994.13;;;2.20;100.00
63907;BME280;50075;49.484;11.238;2024-01-06T07:22:38;97004.50;;;2.27;100.00
63907;BME280;50075;49.484;11.238;2024-01-06T07:25:04;97013.97;;;2.32;100.00
63907;BME280;50075;49.484;11.238;2024-01-06T07:27:30;97026.84;;;2.37;100.00
63907;BME280;50075;49.484;11.238;2024-01-06T07:29:56;97016.72;;;2.46;100.00
63907;BME280;50075;49.484;11.238;2024-01-06T07:32:25;97020.19;;;2.50;100.00
63907;BME280;50075;49.484;11.238;2024-01-06T07:34:50;97020.84;;;2.35;100.00
63907;BME280;50075;49.484;11.238;2024-01-06T07:37:16;97024.25;;;2.36;100.00
63907;BME280;50075;49.484;11.238;2024-01-06T07:39:41;97025.34;;;2.50;100.00
63907;BME280;50075;49.484;11.238;2024-01-06T07:42:07;97030.47;;;2.50;100.00
63907;BME280;50075;49.484;11.238;2024-01-06T07:44:33;97027.06;;;2.51;100.00
63907;BME280;50075;49.484;11.238;2024-01-06T07:46:58;97028.63;;;2.41;100.00
63907;BME280;50075;49.484;11.238;2024-01-06T07:49:24;97034.00;;;2.58;100.00
63907;BME280;50075;49.484;11.238;2024-01-06T07:51:49;97040.00;;;2.60;100.00
63907;BME280;50075;49.484;11.238;2024-01-06T07:54:14;97030.69;;;2.69;100.00
63907;BME280;50075;49.484;11.238;2024-01-06T07:56:39;97034.88;;;2.62;100.00
63907;BME280;50075;49.484;11.238;2024-01-06T07:59:05;97027.34;;;2.75;100.00
63907;BME280;50075;49.484;11.238;2024-01-06T08:01:30;97033.09;;;2.56;100.00
63907;BME280;50075;49.484;11.238;2024-01-06T08:03:57;97030.81;;;2.78;100.00
63907;BME280;50075;49.484;11.238;2024-01-06T08:06:22;97037.81;;;2.92;100.00
63907;BME280;50075;49.484;11.238;2024-01-06T08:08:48;97041.09;;;2.80;100.00
63907;BME280;50075;49.484;11.238;2024-01-06T08:11:13;97042.03;;;2.86;100.00
63907;BME280;50075;49.484;11.238;2024-01-06T08:13:39;97047.81;;;2.67;100.00
63907;BME280;50075;49.484;11.238;2024-01-06T08:16:04;97046.72;;;3.23;100.00
63907;BME280;50075;49.484;11.238;2024-01-06T08:18:30;97046.81;;;3.33;100.00
63907;BME280;50075;49.484;11.238;2024-01-06T08:20:56;97049.25;;;3.17;100.00
63907;BME280;50075;49.484;11.238;2024-01-06T08:23:21;97057.78;;;3.18;100.00
63907;BME280;50075;49.484;11.238;2024-01-06T08:25:46;97045.03;;;3.24;100.00
63907;BME280;50075;49.484;11.238;2024-01-06T08:28:13;97057.63;;;3.02;100.00
63907;BME280;50075;49.484;11.238;2024-01-06T08:30:40;97058.72;;;3.21;100.00
63907;BME280;50075;49.484;11.238;2024-01-06T08:33:05;97068.00;;;3.11;100.00
63907;BME280;50075;49.484;11.238;2024-01-06T08:35:31;97070.03;;;3.41;100.00
63907;BME280;50075;49.484;11.238;2024-01-06T08:37:56;97072.56;;;3.36;100.00
63907;BME280;50075;49.484;11.238;2024-01-06T08:40:22;97077.06;;;3.56;100.00
63907;BME280;50075;49.484;11.238;2024-01-06T08:42:47;97071.06;;;3.58;100.00
63907;BME280;50075;49.484;11.238;2024-01-06T08:45:12;97068.69;;;3.80;100.00
63907;BME280;50075;49.484;11.238;2024-01-06T08:47:38;97074.47;;;3.56;100.00
63907;BME280;50075;49.484;11.238;2024-01-06T08:50:04;97081.31;;;3.55;100.00
63907;BME280;50075;49.484;11.238;2024-01-06T08:52:29;97086.66;;;3.77;100.00
63907;BME280;50075;49.484;11.238;2024-01-06T08:54:54;97080.81;;;3.94;100.00
63907;BME280;50075;49.484;11.238;2024-01-06T08:57:20;97081.34;;;3.58;100.00
63907;BME280;50075;49.484;11.238;2024-01-06T08:59:45;97078.19;;;3.86;100.00
63907;BME280;50075;49.484;11.238;2024-01-06T09:02:11;97082.50;;;3.88;100.00
63907;BME280;50075;49.484;11.238;2024-01-06T09:04:36;97083.31;;;3.84;100.00
63907;BME280;50075;49.484;11.238;2024-01-06T09:07:02;97089.50;;;4.05;100.00
63907;BME280;50075;49.484;11.238;2024-01-06T09:09:27;97083.50;;;4.08;100.00
63907;BME280;50075;49.484;11.238;2024-01-06T09:11:53;97086.72;;;3.85;100.00
63907;BME280;50075;49.484;11.238;2024-01-06T09:14:19;97091.78;;;3.72;100.00
63907;BME280;50075;49.484;11.238;2024-01-06T09:16:44;97083.38;;;3.94;100.00
63907;BME280;50075;49.484;11.238;2024-01-06T09:19:10;97087.91;;;4.23;100.00
63907;BME280;50075;49.484;11.238;2024-01-06T09:21:35;97091.41;;;4.31;100.00
63907;BME280;50075;49.484;11.238;2024-01-06T09:24:01;97098.22;;;4.26;100.00
63907;BME280;50075;49.484;11.238;2024-01-06T09:26:31;97103.69;;;4.74;100.00
63907;BME280;50075;49.484;11.238;2024-01-06T09:28:57;97096.84;;;4.82;100.00
63907;BME280;50075;49.484;11.238;2024-01-06T09:31:22;97098.50;;;4.73;100.00
63907;BME280;50075;49.484;11.238;2024-01-06T09:33:49;97101.28;;;5.16;100.00
63907;BME280;50075;49.484;11.238;2024-01-06T09:36:15;97104.50;;;4.64;100.00
63907;BME280;50075;49.484;11.238;2024-01-06T09:38:40;97107.31;;;5.14;100.00
63907;BME280;50075;49.484;11.238;2024-01-06T09:41:06;97101.38;;;5.40;100.00
63907;BME280;50075;49.484;11.238;2024-01-06T09:43:31;97103.91;;;5.23;100.00
63907;BME280;50075;49.484;11.238;2024-01-06T09:46:29;97103.06;;;5.28;100.00
63907;BME280;50075;49.484;11.238;2024-01-06T09:48:55;97108.22;;;5.33;100.00
63907;BME280;50075;49.484;11.238;2024-01-06T09:51:22;97116.78;;;5.26;100.00
63907;BME280;50075;49.484;11.238;2024-01-06T09:53:58;97109.13;;;5.35;100.00
63907;BME280;50075;49.484;11.238;2024-01-06T09:56:25;97113.25;;;5.00;100.00
63907;BME280;50075;49.484;11.238;2024-01-06T09:58:51;97121.13;;;5.31;100.00
63907;BME280;50075;49.484;11.238;2024-01-06T10:01:20;97116.00;;;5.45;100.00
63907;BME280;50075;49.484;11.238;2024-01-06T10:03:46;97122.09;;;5.74;100.00
63907;BME280;50075;49.484;11.238;2024-01-06T10:06:15;97116.09;;;5.72;100.00
63907;BME280;50075;49.484;11.238;2024-01-06T10:08:48;97124.53;;;5.29;100.00
63907;BME280;50075;49.484;11.238;2024-01-06T10:11:13;97134.09;;;5.49;100.00
63907;BME280;50075;49.484;11.238;2024-01-06T10:13:38;97127.19;;;5.43;100.00
63907;BME280;50075;49.484;11.238;2024-01-06T10:16:05;97129.75;;;5.47;100.00
63907;BME280;50075;49.484;11.238;2024-01-06T10:18:30;97127.28;;;5.90;100.00
63907;BME280;50075;49.484;11.238;2024-01-06T10:20:57;97128.09;;;5.64;100.00
63907;BME280;50075;49.484;11.238;2024-01-06T10:23:23;97123.78;;;5.66;100.00
63907;BME280;50075;49.484;11.238;2024-01-06T10:25:52;97130.69;;;5.79;100.00
63907;BME280;50075;49.484;11.238;2024-01-06T10:28:17;97128.16;;;5.98;100.00
63907;BME280;50075;49.484;11.238;2024-01-06T10:30:42;97131.66;;;6.06;100.00
63907;BME280;50075;49.484;11.238;2024-01-06T10:33:11;97133.31;;;5.99;100.00
63907;BME280;50075;49.484;11.238;2024-01-06T10:35:39;97132.47;;;5.99;100.00
63907;BME280;50075;49.484;11.238;2024-01-06T10:38:04;97133.31;;;5.92;100.00
63907;BME280;50075;49.484;11.238;2024-01-06T10:40:29;97135.84;;;5.64;100.00
63907;BME280;50075;49.484;11.238;2024-01-06T10:42:55;97130.72;;;6.03;100.00
63907;BME280;50075;49.484;11.238;2024-01-06T10:45:23;97132.50;;;6.05;100.00
63907;BME280;50075;49.484;11.238;2024-01-06T10:47:49;97129.88;;;5.99;100.00
63907;BME280;50075;49.484;11.238;2024-01-06T10:50:17;97133.25;;;5.64;100.00
63907;BME280;50075;49.484;11.238;2024-01-06T10:52:43;97128.16;;;5.87;100.00
63907;BME280;50075;49.484;11.238;2024-01-06T10:55:09;97134.22;;;6.11;100.00
63907;BME280;50075;49.484;11.238;2024-01-06T10:57:39;97131.63;;;6.12;100.00
63907;BME280;50075;49.484;11.238;2024-01-06T11:00:08;97132.44;;;5.94;100.00
63907;BME280;50075;49.484;11.238;2024-01-06T11:02:35;97126.47;;;6.03;100.00
63907;BME280;50075;49.484;11.238;2024-01-06T11:05:00;97123.84;;;5.83;100.00
63907;BME280;50075;49.484;11.238;2024-01-06T11:07:26;97133.38;;;6.07;100.00
63907;BME280;50075;49.484;11.238;2024-01-06T11:10:04;97132.50;;;6.40;100.00
63907;BME280;50075;49.484;11.238;2024-01-06T11:12:31;97129.94;;;6.11;100.00
63907;BME280;50075;49.484;11.238;2024-01-06T11:14:56;97129.06;;;6.16;100.00
63907;BME280;50075;49.484;11.238;2024-01-06T11:20:19;97129.91;;;6.43;100.00
63907;BME280;50075;49.484;11.238;2024-01-06T11:22:45;97125.63;;;6.20;100.00
63907;BME280;50075;49.484;11.238;2024-01-06T11:25:18;97129.94;;;6.21;100.00
63907;BME280;50075;49.484;11.238;2024-01-06T11:27:46;97117.84;;;6.49;100.00
63907;BME280;50075;49.484;11.238;2024-01-06T11:30:38;97125.59;;;6.49;100.00
63907;BME280;50075;49.484;11.238;2024-01-06T11:33:05;97130.75;;;6.67;100.00
63907;BME280;50075;49.484;11.238;2024-01-06T11:35:30;97123.88;;;6.53;100.00
63907;BME280;50075;49.484;11.238;2024-01-06T11:37:58;97118.66;;;6.83;100.00
63907;BME280;50075;49.484;11.238;2024-01-06T11:40:36;97127.31;;;6.61;100.00
63907;BME280;50075;49.484;11.238;2024-01-06T11:43:11;97119.56;;;6.52;100.00
63907;BME280;50075;49.484;11.238;2024-01-06T11:45:38;97115.25;;;6.65;100.00
63907;BME280;50075;49.484;11.238;2024-01-06T11:48:08;97113.53;;;6.53;100.00
63907;BME280;50075;49.484;11.238;2024-01-06T11:50:36;97116.88;;;7.08;100.00
63907;BME280;50075;49.484;11.238;2024-01-06T11:53:02;97107.41;;;7.07;100.00
63907;BME280;50075;49.484;11.238;2024-01-06T11:55:28;97103.94;;;7.13;100.00
63907;BME280;50075;49.484;11.238;2024-01-06T11:57:55;97094.50;;;6.93;100.00
63907;BME280;50075;49.484;11.238;2024-01-06T12:00:21;97097.94;;;6.98;100.00
63907;BME280;50075;49.484;11.238;2024-01-06T12:02:47;97098.88;;;6.79;100.00
63907;BME280;50075;49.484;11.238;2024-01-06T12:05:16;97089.38;;;6.87;100.00
63907;BME280;50075;49.484;11.238;2024-01-06T12:07:44;97084.94;;;7.19;100.00
63907;BME280;50075;49.484;11.238;2024-01-06T12:10:20;97077.91;;;7.46;100.00
63907;BME280;50075;49.484;11.238;2024-01-06T12:13:03;97071.91;;;7.40;100.00
63907;BME280;50075;49.484;11.238;2024-01-06T12:15:31;97074.66;;;7.03;100.00
63907;BME280;50075;49.484;11.238;2024-01-06T12:17:57;97079.03;;;6.85;100.00
63907;BME280;50075;49.484;11.238;2024-01-06T12:20:24;97079.03;;;6.82;100.00
63907;BME280;50075;49.484;11.238;2024-01-06T12:22:54;97072.06;;;7.00;100.00
63907;BME280;50075;49.484;11.238;2024-01-06T12:25:21;97070.28;;;7.22;100.00
63907;BME280;50075;49.484;11.238;2024-01-06T12:27:48;97066.75;;;7.34;100.00
63907;BME280;50075;49.484;11.238;2024-01-06T12:30:16;97059.81;;;7.41;100.00
63907;BME280;50075;49.484;11.238;2024-01-06T12:32:44;97061.47;;;7.53;100.00
63907;BME280;50075;49.484;11.238;2024-01-06T12:35:11;97056.34;;;7.43;100.00
63907;BME280;50075;49.484;11.238;2024-01-06T12:37:37;97059.75;;;7.49;100.00
63907;BME280;50075;49.484;11.238;2024-01-06T12:40:03;97065.78;;;7.54;100.00
63907;BME280;50075;49.484;11.238;2024-01-06T12:42:28;97061.56;;;7.36;100.00
63907;BME280;50075;49.484;11.238;2024-01-06T12:44:53;97065.06;;;7.27;100.00
63907;BME280;50075;49.484;11.238;2024-01-06T12:47:19;97060.47;;;7.76;100.00